createdAt,value
2022-07-27T00:00:46.496Z,0.00
2022-07-27T00:01:51.112Z,0.00
2022-07-27T00:02:51.396Z,0.00
2022-07-27T00:03:46.322Z,0.00
2022-07-27T00:04:46.237Z,0.00
2022-07-27T00:05:46.157Z,0.00
2022-07-27T00:06:46.064Z,0.00
2022-07-27T00:07:46.061Z,0.00
2022-07-27T00:08:46.000Z,0.00
2022-07-27T00:09:45.938Z,0.00
2022-07-27T00:10:45.919Z,0.00
2022-07-27T00:11:45.858Z,0.00
2022-07-27T00:12:45.802Z,0.00
2022-07-27T00:13:45.770Z,0.00
2022-07-27T00:14:45.690Z,0.00
2022-07-27T00:15:45.652Z,0.00
2022-07-27T00:16:45.722Z,0.00
2022-07-27T00:17:45.527Z,0.00
2022-07-27T00:18:45.514Z,0.00
2022-07-27T00:19:45.428Z,0.00
2022-07-27T00:20:45.396Z,0.00
2022-07-27T00:21:46.279Z,0.00
2022-07-27T00:22:45.310Z,0.00
2022-07-27T00:23:45.264Z,0.00
2022-07-27T00:24:45.232Z,0.00
2022-07-27T00:25:45.181Z,0.00
2022-07-27T00:26:45.129Z,0.00
2022-07-27T00:27:45.045Z,0.00
2022-07-27T00:28:45.006Z,0.00
2022-07-27T00:29:44.948Z,0.00
2022-07-27T00:30:44.937Z,0.00
2022-07-27T00:31:44.925Z,0.00
2022-07-27T00:32:44.825Z,0.00
2022-07-27T00:33:44.782Z,0.00
2022-07-27T00:34:44.690Z,0.00
2022-07-27T00:35:44.681Z,0.00
2022-07-27T00:36:44.606Z,0.00
2022-07-27T00:37:44.576Z,0.00
2022-07-27T00:38:44.532Z,0.00
2022-07-27T00:39:44.463Z,0.00
2022-07-27T00:40:44.440Z,0.00
2022-07-27T00:41:44.366Z,0.00
2022-07-27T00:42:44.320Z,0.00
2022-07-27T00:43:44.281Z,0.00
2022-07-27T00:44:44.207Z,0.00
2022-07-27T00:45:44.204Z,0.00
2022-07-27T00:46:44.169Z,0.00
2022-07-27T00:47:44.072Z,0.00
2022-07-27T00:48:44.108Z,0.00
2022-07-27T00:49:43.972Z,0.00
2022-07-27T00:50:43.929Z,0.00
2022-07-27T00:51:43.973Z,0.00
2022-07-27T00:52:43.795Z,0.00
2022-07-27T00:53:43.784Z,0.00
2022-07-27T00:54:43.717Z,0.00
2022-07-27T00:55:43.708Z,0.00
2022-07-27T00:56:43.597Z,0.00
2022-07-27T00:57:58.162Z,0.00
2022-07-27T00:58:43.563Z,0.00
2022-07-27T00:59:43.479Z,0.00
2022-07-27T01:00:43.432Z,0.00
2022-07-27T01:01:43.526Z,0.00
2022-07-27T01:02:43.965Z,0.00
2022-07-27T01:03:43.305Z,0.00
2022-07-27T01:04:43.213Z,0.00
2022-07-27T01:05:44.159Z,0.00
2022-07-27T01:06:43.117Z,0.00
2022-07-27T01:07:43.072Z,0.00
2022-07-27T01:08:43.040Z,0.00
2022-07-27T01:09:42.965Z,0.00
2022-07-27T01:10:42.928Z,0.00
2022-07-27T01:11:42.898Z,0.00
2022-07-27T01:12:42.851Z,0.00
2022-07-27T01:13:42.778Z,0.00
2022-07-27T01:14:42.734Z,0.00
2022-07-27T01:15:42.779Z,0.00
2022-07-27T01:16:42.630Z,0.00
2022-07-27T01:17:42.563Z,0.00
2022-07-27T01:18:42.559Z,0.00
2022-07-27T01:19:42.480Z,0.00
2022-07-27T01:20:42.444Z,0.00
2022-07-27T01:21:42.356Z,0.00
2022-07-27T01:22:42.351Z,0.00
2022-07-27T01:23:42.285Z,0.00
2022-07-27T01:24:42.231Z,0.00
2022-07-27T01:25:42.165Z,0.00
2022-07-27T01:26:42.110Z,0.00
2022-07-27T01:27:42.126Z,0.00
2022-07-27T01:28:42.057Z,0.00
2022-07-27T01:29:41.984Z,0.00
2022-07-27T01:30:41.925Z,0.00
2022-07-27T01:31:41.938Z,0.00
2022-07-27T01:32:41.830Z,0.00
2022-07-27T01:33:41.799Z,0.00
2022-07-27T01:34:41.749Z,0.00
2022-07-27T01:35:41.688Z,0.00
2022-07-27T01:36:41.625Z,0.00
2022-07-27T01:37:41.599Z,0.00
2022-07-27T01:38:41.533Z,0.00
2022-07-27T01:39:41.481Z,0.00
2022-07-27T01:40:41.469Z,0.00
2022-07-27T01:41:41.404Z,0.00
2022-07-27T01:42:41.340Z,0.00
2022-07-27T01:43:41.292Z,0.00
2022-07-27T01:44:41.234Z,0.00
2022-07-27T01:45:41.193Z,0.00
2022-07-27T01:46:41.246Z,0.00
2022-07-27T01:47:41.087Z,0.00
2022-07-27T01:48:41.078Z,0.00
2022-07-27T01:49:41.377Z,0.00
2022-07-27T01:50:40.956Z,0.00
2022-07-27T01:51:40.930Z,0.00
2022-07-27T01:52:40.837Z,0.00
2022-07-27T01:53:40.807Z,0.00
2022-07-27T01:54:40.740Z,0.00
2022-07-27T01:55:40.727Z,0.00
2022-07-27T01:56:40.663Z,0.00
2022-07-27T01:57:40.592Z,0.00
2022-07-27T01:58:40.577Z,0.00
2022-07-27T01:59:40.474Z,0.00
2022-07-27T02:00:40.479Z,0.00
2022-07-27T02:01:40.461Z,0.00
2022-07-27T02:02:40.336Z,0.00
2022-07-27T02:03:40.303Z,0.00
2022-07-27T02:04:40.277Z,0.00
2022-07-27T02:05:40.285Z,0.00
2022-07-27T02:06:40.133Z,0.00
2022-07-27T02:07:40.074Z,0.00
2022-07-27T02:08:40.050Z,0.00
2022-07-27T02:09:39.974Z,0.00
2022-07-27T02:10:39.976Z,0.00
2022-07-27T02:11:39.923Z,0.00
2022-07-27T02:12:39.860Z,0.00
2022-07-27T02:13:39.800Z,0.00
2022-07-27T02:14:39.722Z,0.00
2022-07-27T02:15:43.269Z,0.00
2022-07-27T02:16:39.704Z,0.00
2022-07-27T02:17:39.597Z,0.00
2022-07-27T02:18:39.536Z,0.00
2022-07-27T02:19:39.517Z,0.00
2022-07-27T02:20:39.472Z,0.00
2022-07-27T02:21:39.388Z,0.00
2022-07-27T02:22:39.327Z,0.00
2022-07-27T02:23:39.292Z,0.00
2022-07-27T02:24:39.238Z,0.00
2022-07-27T02:25:39.169Z,0.00
2022-07-27T02:26:39.152Z,0.00
2022-07-27T02:27:39.237Z,0.00
2022-07-27T02:28:39.017Z,0.00
2022-07-27T02:29:38.992Z,0.00
2022-07-27T02:30:39.034Z,0.00
2022-07-27T02:31:38.869Z,0.00
2022-07-27T02:32:38.889Z,0.00
2022-07-27T02:33:38.761Z,0.00
2022-07-27T02:34:38.735Z,0.00
2022-07-27T02:35:38.715Z,0.00
2022-07-27T02:36:38.624Z,0.00
2022-07-27T02:37:38.575Z,0.00
2022-07-27T02:38:38.559Z,0.00
2022-07-27T02:39:38.489Z,0.00
2022-07-27T02:40:38.455Z,0.00
2022-07-27T02:41:38.416Z,0.00
2022-07-27T02:42:38.327Z,0.00
2022-07-27T02:43:38.290Z,0.00
2022-07-27T02:44:38.246Z,0.00
2022-07-27T02:45:38.218Z,0.00
2022-07-27T02:46:38.225Z,0.00
2022-07-27T02:47:38.077Z,0.00
2022-07-27T02:48:38.062Z,0.00
2022-07-27T02:49:37.975Z,0.00
2022-07-27T02:50:37.956Z,0.00
2022-07-27T02:51:39.485Z,0.00
2022-07-27T02:52:37.825Z,0.00
2022-07-27T02:53:37.798Z,0.00
2022-07-27T02:54:37.745Z,0.00
2022-07-27T02:55:37.679Z,0.00
2022-07-27T02:56:37.670Z,0.00
2022-07-27T02:57:44.376Z,0.00
2022-07-27T02:58:37.575Z,0.00
2022-07-27T02:59:37.486Z,0.00
2022-07-27T03:00:37.424Z,0.00
2022-07-27T03:01:37.492Z,0.00
2022-07-27T03:02:37.356Z,0.00
2022-07-27T03:03:37.416Z,0.00
2022-07-27T03:04:37.259Z,0.00
2022-07-27T03:05:37.173Z,0.00
2022-07-27T03:06:37.159Z,0.00
2022-07-27T03:07:37.075Z,0.00
2022-07-27T03:08:37.045Z,0.00
2022-07-27T03:09:36.996Z,0.00
2022-07-27T03:10:36.940Z,0.00
2022-07-27T03:11:36.898Z,0.00
2022-07-27T03:12:36.829Z,0.00
2022-07-27T03:13:36.778Z,0.00
2022-07-27T03:14:36.755Z,0.00
2022-07-27T03:15:36.708Z,0.00
2022-07-27T03:16:36.652Z,0.00
2022-07-27T03:17:36.573Z,0.00
2022-07-27T03:18:36.525Z,0.00
2022-07-27T03:19:36.495Z,4.00
2022-07-27T03:20:36.446Z,4.00
2022-07-27T03:21:36.382Z,0.00
2022-07-27T03:22:36.346Z,0.00
2022-07-27T03:23:36.291Z,4.00
2022-07-27T03:24:36.225Z,4.00
2022-07-27T03:25:36.148Z,4.00
2022-07-27T03:26:36.128Z,4.00
2022-07-27T03:27:36.071Z,4.00
2022-07-27T03:28:36.041Z,4.00
2022-07-27T03:29:35.946Z,4.00
2022-07-27T03:30:35.989Z,4.00
2022-07-27T03:31:35.899Z,8.00
2022-07-27T03:32:35.814Z,4.00
2022-07-27T03:33:35.799Z,8.00
2022-07-27T03:34:35.712Z,8.00
2022-07-27T03:35:35.694Z,8.00
2022-07-27T03:36:35.633Z,8.00
2022-07-27T03:37:35.572Z,12.00
2022-07-27T03:38:35.542Z,12.00
2022-07-27T03:39:35.477Z,12.00
2022-07-27T03:40:35.450Z,16.00
2022-07-27T03:41:35.379Z,16.00
2022-07-27T03:42:35.345Z,20.00
2022-07-27T03:43:35.283Z,16.00
2022-07-27T03:44:35.203Z,20.00
2022-07-27T03:45:35.239Z,24.00
2022-07-27T03:46:35.114Z,24.00
2022-07-27T03:47:35.057Z,24.00
2022-07-27T03:48:35.061Z,24.00
2022-07-27T03:49:35.047Z,24.00
2022-07-27T03:50:34.921Z,28.00
2022-07-27T03:51:34.893Z,28.00
2022-07-27T03:52:34.844Z,36.00
2022-07-27T03:53:34.789Z,36.00
2022-07-27T03:54:34.701Z,40.00
2022-07-27T03:55:34.688Z,44.00
2022-07-27T03:56:34.626Z,48.00
2022-07-27T03:57:34.544Z,52.00
2022-07-27T03:58:34.515Z,60.00
2022-07-27T03:59:34.454Z,68.00
2022-07-27T04:00:34.429Z,76.00
2022-07-27T04:01:35.010Z,88.00
2022-07-27T04:02:34.379Z,92.00
2022-07-27T04:03:34.301Z,104.00
2022-07-27T04:04:34.230Z,112.00
2022-07-27T04:05:34.167Z,120.00
2022-07-27T04:06:34.101Z,128.00
2022-07-27T04:07:34.077Z,132.00
2022-07-27T04:08:34.017Z,136.00
2022-07-27T04:09:33.978Z,140.00
2022-07-27T04:10:33.893Z,144.00
2022-07-27T04:11:33.886Z,144.00
2022-07-27T04:12:33.817Z,148.00
2022-07-27T04:13:33.784Z,156.00
2022-07-27T04:14:33.703Z,160.00
2022-07-27T04:15:33.691Z,164.00
2022-07-27T04:16:36.252Z,172.00
2022-07-27T04:17:56.221Z,176.00
2022-07-27T04:18:33.483Z,184.00
2022-07-27T04:19:33.438Z,188.00
2022-07-27T04:20:33.439Z,188.00
2022-07-27T04:21:33.698Z,196.00
2022-07-27T04:22:33.346Z,204.00
2022-07-27T04:23:37.979Z,216.00
2022-07-27T04:24:33.208Z,228.00
2022-07-27T04:25:33.210Z,244.00
2022-07-27T04:26:33.123Z,256.00
2022-07-27T04:27:33.071Z,264.00
2022-07-27T04:28:33.006Z,280.00
2022-07-27T04:29:32.957Z,300.00
2022-07-27T04:30:32.944Z,328.00
2022-07-27T04:31:32.908Z,356.00
2022-07-27T04:32:32.808Z,376.00
2022-07-27T04:33:32.755Z,396.00
2022-07-27T04:34:32.695Z,412.00
2022-07-27T04:35:32.618Z,428.00
2022-07-27T04:36:32.610Z,448.00
2022-07-27T04:37:32.684Z,472.00
2022-07-27T04:38:32.507Z,496.00
2022-07-27T04:39:32.480Z,520.00
2022-07-27T04:40:41.871Z,544.00
2022-07-27T04:41:32.322Z,564.00
2022-07-27T04:42:32.260Z,584.00
2022-07-27T04:43:32.222Z,608.00
2022-07-27T04:44:32.158Z,628.00
2022-07-27T04:45:32.190Z,648.00
2022-07-27T04:46:32.127Z,680.00
2022-07-27T04:47:32.013Z,720.00
2022-07-27T04:48:32.010Z,760.00
2022-07-27T04:49:31.916Z,800.00
2022-07-27T04:50:31.856Z,840.00
2022-07-27T04:51:34.699Z,836.00
2022-07-27T04:52:31.752Z,840.00
2022-07-27T04:53:31.715Z,860.00
2022-07-27T04:54:31.667Z,868.00
2022-07-27T04:55:31.614Z,888.00
2022-07-27T04:56:31.552Z,916.00
2022-07-27T04:57:31.592Z,956.00
2022-07-27T04:58:31.449Z,984.00
2022-07-27T04:59:31.400Z,1004.00
2022-07-27T05:00:31.394Z,1004.00
2022-07-27T05:01:35.163Z,1024.00
2022-07-27T05:02:31.286Z,1052.00
2022-07-27T05:03:31.211Z,1088.00
2022-07-27T05:04:31.218Z,1104.00
2022-07-27T05:05:31.100Z,1168.00
2022-07-27T05:06:31.044Z,1232.00
2022-07-27T05:07:31.012Z,1276.00
2022-07-27T05:08:30.945Z,1272.00
2022-07-27T05:09:30.896Z,1256.00
2022-07-27T05:10:30.860Z,1272.00
2022-07-27T05:11:30.793Z,1300.00
2022-07-27T05:12:30.742Z,1324.00
2022-07-27T05:13:30.705Z,1340.00
2022-07-27T05:14:30.660Z,1312.00
2022-07-27T05:15:55.008Z,1316.00
2022-07-27T05:16:30.588Z,1336.00
2022-07-27T05:17:30.490Z,1412.00
2022-07-27T05:18:30.439Z,1460.00
2022-07-27T05:19:40.709Z,1484.00
2022-07-27T05:20:30.357Z,1504.00
2022-07-27T05:21:30.287Z,1524.00
2022-07-27T05:22:30.242Z,1568.00
2022-07-27T05:23:30.190Z,1468.00
2022-07-27T05:24:30.139Z,1512.00
2022-07-27T05:25:30.106Z,1548.00
2022-07-27T05:26:30.037Z,1568.00
2022-07-27T05:27:29.987Z,1588.00
2022-07-27T05:28:29.942Z,1684.00
2022-07-27T05:29:29.885Z,1772.00
2022-07-27T05:30:29.852Z,1848.00
2022-07-27T05:31:29.837Z,1888.00
2022-07-27T05:32:29.748Z,1920.00
2022-07-27T05:33:29.690Z,1968.00
2022-07-27T05:34:29.634Z,2012.00
2022-07-27T05:35:29.614Z,2108.00
2022-07-27T05:36:29.535Z,2176.00
2022-07-27T05:37:29.484Z,2216.00
2022-07-27T05:38:29.433Z,2264.00
2022-07-27T05:39:29.380Z,2216.00
2022-07-27T05:40:29.349Z,2044.00
2022-07-27T05:41:29.280Z,1960.00
2022-07-27T05:42:29.231Z,1988.00
2022-07-27T05:43:29.198Z,2192.00
2022-07-27T05:44:29.138Z,2248.00
2022-07-27T05:45:29.113Z,2456.00
2022-07-27T05:46:32.665Z,2540.00
2022-07-27T05:47:28.982Z,2588.00
2022-07-27T05:48:28.934Z,2684.00
2022-07-27T05:49:28.942Z,2744.00
2022-07-27T05:50:28.887Z,2696.00
2022-07-27T05:51:28.783Z,2636.00
2022-07-27T05:52:28.746Z,2420.00
2022-07-27T05:53:28.680Z,2316.00
2022-07-27T05:54:28.629Z,2208.00
2022-07-27T05:55:28.580Z,2180.00
2022-07-27T05:56:28.529Z,2148.00
2022-07-27T05:57:28.493Z,2160.00
2022-07-27T05:58:28.430Z,2164.00
2022-07-27T05:59:28.378Z,2168.00
2022-07-27T06:00:28.444Z,2220.00
2022-07-27T06:01:28.330Z,2232.00
2022-07-27T06:02:28.247Z,2348.00
2022-07-27T06:03:28.263Z,2320.00
2022-07-27T06:04:28.132Z,2304.00
2022-07-27T06:05:28.085Z,2284.00
2022-07-27T06:06:28.029Z,2340.00
2022-07-27T06:07:27.981Z,2564.00
2022-07-27T06:08:27.945Z,2724.00
2022-07-27T06:09:27.893Z,2736.00
2022-07-27T06:10:27.877Z,2736.00
2022-07-27T06:11:27.796Z,2756.00
2022-07-27T06:12:30.239Z,2780.00
2022-07-27T06:13:28.516Z,2816.00
2022-07-27T06:14:27.640Z,2864.00
2022-07-27T06:15:27.581Z,2956.00
2022-07-27T06:16:28.004Z,3032.00
2022-07-27T06:17:27.479Z,3112.00
2022-07-27T06:18:27.427Z,3144.00
2022-07-27T06:19:36.011Z,3200.00
2022-07-27T06:20:27.446Z,3276.00
2022-07-27T06:21:27.293Z,3284.00
2022-07-27T06:22:27.229Z,3296.00
2022-07-27T06:23:27.194Z,3320.00
2022-07-27T06:24:27.131Z,3356.00
2022-07-27T06:25:33.981Z,3404.00
2022-07-27T06:26:27.046Z,3436.00
2022-07-27T06:27:29.616Z,3572.00
2022-07-27T06:28:26.944Z,3524.00
2022-07-27T06:29:26.881Z,3520.00
2022-07-27T06:30:26.871Z,3540.00
2022-07-27T06:31:26.863Z,3604.00
2022-07-27T06:32:26.734Z,3628.00
2022-07-27T06:33:26.685Z,3744.00
2022-07-27T06:34:26.632Z,3812.00
2022-07-27T06:35:26.598Z,3864.00
2022-07-27T06:36:26.552Z,3980.00
2022-07-27T06:37:26.483Z,4024.00
2022-07-27T06:38:26.432Z,4004.00
2022-07-27T06:39:26.385Z,4048.00
2022-07-27T06:40:29.592Z,4232.00
2022-07-27T06:41:26.299Z,4568.00
2022-07-27T06:42:26.237Z,4804.00
2022-07-27T06:43:26.187Z,4712.00
2022-07-27T06:44:26.153Z,4432.00
2022-07-27T06:45:26.097Z,4128.00
2022-07-27T06:46:26.180Z,3848.00
2022-07-27T06:47:28.788Z,3596.00
2022-07-27T06:48:25.940Z,3368.00
2022-07-27T06:49:25.966Z,3168.00
2022-07-27T06:50:25.886Z,3200.00
2022-07-27T06:51:25.789Z,3120.00
2022-07-27T06:52:25.746Z,2884.00
2022-07-27T06:53:25.706Z,2584.00
2022-07-27T06:54:25.656Z,2408.00
2022-07-27T06:55:25.593Z,2408.00
2022-07-27T06:56:25.561Z,2460.00
2022-07-27T06:57:25.538Z,2548.00
2022-07-27T06:58:25.448Z,2596.00
2022-07-27T06:59:25.398Z,2680.00
2022-07-27T07:00:25.394Z,2804.00
2022-07-27T07:01:25.346Z,3128.00
2022-07-27T07:02:25.245Z,3352.00
2022-07-27T07:03:25.491Z,3452.00
2022-07-27T07:04:25.435Z,3460.00
2022-07-27T07:05:25.117Z,3572.00
2022-07-27T07:06:25.067Z,3572.00
2022-07-27T07:07:25.004Z,3548.00
2022-07-27T07:08:24.954Z,3660.00
2022-07-27T07:09:24.906Z,3860.00
2022-07-27T07:10:25.007Z,3908.00
2022-07-27T07:11:24.808Z,4144.00
2022-07-27T07:12:24.758Z,4616.00
2022-07-27T07:13:24.708Z,4660.00
2022-07-27T07:14:24.675Z,4456.00
2022-07-27T07:15:24.616Z,4396.00
2022-07-27T07:16:24.645Z,4308.00
2022-07-27T07:17:24.513Z,4484.00
2022-07-27T07:18:24.483Z,4560.00
2022-07-27T07:19:24.417Z,4544.00
2022-07-27T07:20:24.442Z,4512.00
2022-07-27T07:21:24.320Z,4428.00
2022-07-27T07:22:24.273Z,4472.00
2022-07-27T07:23:24.234Z,4372.00
2022-07-27T07:24:24.175Z,4400.00
2022-07-27T07:25:24.143Z,4552.00
2022-07-27T07:26:24.076Z,4768.00
2022-07-27T07:27:24.028Z,4792.00
2022-07-27T07:28:23.993Z,4908.00
2022-07-27T07:29:23.929Z,4916.00
2022-07-27T07:30:23.895Z,4816.00
2022-07-27T07:31:23.863Z,4728.00
2022-07-27T07:32:23.787Z,4688.00
2022-07-27T07:33:23.738Z,4708.00
2022-07-27T07:34:23.688Z,4928.00
2022-07-27T07:35:23.649Z,5056.00
2022-07-27T07:36:23.606Z,5004.00
2022-07-27T07:37:23.546Z,4744.00
2022-07-27T07:38:23.497Z,4156.00
2022-07-27T07:39:27.820Z,3812.00
2022-07-27T07:40:52.067Z,3924.00
2022-07-27T07:41:23.353Z,4000.00
2022-07-27T07:42:23.303Z,3984.00
2022-07-27T07:43:23.271Z,4312.00
2022-07-27T07:44:23.214Z,4104.00
2022-07-27T07:45:23.159Z,3836.00
2022-07-27T07:46:23.191Z,3632.00
2022-07-27T07:47:23.062Z,3500.00
2022-07-27T07:48:23.028Z,3456.00
2022-07-27T07:49:39.494Z,3508.00
2022-07-27T07:50:22.934Z,3640.00
2022-07-27T07:51:22.870Z,3860.00
2022-07-27T07:52:22.824Z,4180.00
2022-07-27T07:53:22.862Z,4396.00
2022-07-27T07:54:22.753Z,4304.00
2022-07-27T07:55:22.678Z,4300.00
2022-07-27T07:56:22.644Z,4268.00
2022-07-27T07:57:22.582Z,4196.00
2022-07-27T07:58:22.534Z,4080.00
2022-07-27T07:59:22.488Z,3732.00
2022-07-27T08:00:22.472Z,3312.00
2022-07-27T08:01:22.453Z,3176.00
2022-07-27T08:02:22.343Z,3156.00
2022-07-27T08:03:22.435Z,3284.00
2022-07-27T08:04:22.263Z,3592.00
2022-07-27T08:05:22.199Z,3572.00
2022-07-27T08:06:22.152Z,3656.00
2022-07-27T08:07:22.105Z,3624.00
2022-07-27T08:08:24.811Z,3520.00
2022-07-27T08:09:22.027Z,3140.00
2022-07-27T08:10:22.088Z,3056.00
2022-07-27T08:11:21.917Z,3068.00
2022-07-27T08:12:21.869Z,2968.00
2022-07-27T08:13:22.589Z,2568.00
2022-07-27T08:14:21.792Z,2512.00
2022-07-27T08:15:21.726Z,2496.00
2022-07-27T08:16:21.742Z,2572.00
2022-07-27T08:17:21.627Z,2680.00
2022-07-27T08:18:21.582Z,2780.00
2022-07-27T08:19:21.534Z,3088.00
2022-07-27T08:20:21.581Z,3912.00
2022-07-27T08:21:21.455Z,3712.00
2022-07-27T08:22:21.391Z,3792.00
2022-07-27T08:23:21.344Z,3832.00
2022-07-27T08:24:21.297Z,3760.00
2022-07-27T08:25:21.258Z,3736.00
2022-07-27T08:26:21.216Z,3752.00
2022-07-27T08:27:21.170Z,3884.00
2022-07-27T08:28:21.137Z,3876.00
2022-07-27T08:29:23.071Z,3824.00
2022-07-27T08:30:21.026Z,4020.00
2022-07-27T08:31:24.513Z,4468.00
2022-07-27T08:32:20.965Z,4236.00
2022-07-27T08:33:20.883Z,4328.00
2022-07-27T08:34:20.819Z,4304.00
2022-07-27T08:35:20.772Z,4212.00
2022-07-27T08:36:20.726Z,4196.00
2022-07-27T08:37:20.691Z,4212.00
2022-07-27T08:38:20.632Z,4252.00
2022-07-27T08:40:05.394Z,4500.00
2022-07-27T08:41:20.486Z,5244.00
2022-07-27T08:42:20.454Z,4296.00
2022-07-27T08:43:25.179Z,4816.00
2022-07-27T08:44:20.361Z,3560.00
2022-07-27T08:45:20.299Z,3604.00
2022-07-27T08:46:20.312Z,4332.00
2022-07-27T08:47:20.217Z,3536.00
2022-07-27T08:48:20.157Z,3980.00
2022-07-27T08:49:20.173Z,4036.00
2022-07-27T08:50:20.057Z,3020.00
2022-07-27T08:51:20.018Z,2992.00
2022-07-27T08:52:19.983Z,3164.00
2022-07-27T08:53:19.918Z,3748.00
2022-07-27T08:54:19.873Z,3720.00
2022-07-27T08:55:19.831Z,4232.00
2022-07-27T08:56:19.780Z,4220.00
2022-07-27T08:57:19.746Z,3888.00
2022-07-27T08:58:19.683Z,3724.00
2022-07-27T08:59:20.406Z,3540.00
2022-07-27T09:00:19.755Z,3532.00
2022-07-27T09:01:19.665Z,3616.00
2022-07-27T09:02:19.665Z,4196.00
2022-07-27T09:03:20.831Z,5024.00
2022-07-27T09:04:19.401Z,5136.00
2022-07-27T09:05:19.370Z,4728.00
2022-07-27T09:06:19.307Z,4628.00
2022-07-27T09:07:19.262Z,4772.00
2022-07-27T09:08:19.236Z,5464.00
2022-07-27T09:09:19.168Z,6172.00
2022-07-27T09:10:19.120Z,6804.00
2022-07-27T09:11:19.072Z,6984.00
2022-07-27T09:12:19.027Z,6996.00
2022-07-27T09:13:18.996Z,6980.00
2022-07-27T09:14:18.934Z,6928.00
2022-07-27T09:15:18.885Z,6860.00
2022-07-27T09:16:20.444Z,6824.00
2022-07-27T09:17:49.316Z,6736.00
2022-07-27T09:18:18.815Z,6632.00
2022-07-27T09:19:18.732Z,6772.00
2022-07-27T09:20:19.301Z,6224.00
2022-07-27T09:21:18.617Z,6616.00
2022-07-27T09:22:18.564Z,7064.00
2022-07-27T09:23:18.543Z,7172.00
2022-07-27T09:24:44.477Z,5428.00
2022-07-27T09:25:18.473Z,5352.00
2022-07-27T09:26:30.985Z,5344.00
2022-07-27T09:27:18.338Z,5244.00
2022-07-27T09:28:18.294Z,5236.00
2022-07-27T09:29:18.265Z,5096.00
2022-07-27T09:30:18.208Z,5020.00
2022-07-27T09:31:18.262Z,5008.00
2022-07-27T09:32:18.129Z,6272.00
2022-07-27T09:33:18.070Z,6336.00
2022-07-27T09:34:18.037Z,5924.00
2022-07-27T09:35:17.976Z,6308.00
2022-07-27T09:36:17.953Z,5872.00
2022-07-27T09:37:17.897Z,5164.00
2022-07-27T09:38:17.847Z,6236.00
2022-07-27T09:39:18.022Z,6228.00
2022-07-27T09:40:24.272Z,5952.00
2022-07-27T09:41:17.710Z,6284.00
2022-07-27T09:42:52.498Z,6336.00
2022-07-27T09:44:19.762Z,6420.00
2022-07-27T09:44:34.732Z,5840.00
2022-07-27T09:45:17.551Z,5100.00
2022-07-27T09:46:17.519Z,5308.00
2022-07-27T09:47:17.446Z,5908.00
2022-07-27T09:48:17.400Z,5544.00
2022-07-27T09:49:17.432Z,5796.00
2022-07-27T09:50:17.346Z,6168.00
2022-07-27T09:51:58.162Z,6236.00
2022-07-27T09:52:17.229Z,5220.00
2022-07-27T09:53:40.846Z,4916.00
2022-07-27T09:54:17.152Z,4868.00
2022-07-27T09:55:17.098Z,4800.00
2022-07-27T09:56:17.050Z,4848.00
2022-07-27T09:57:17.014Z,4816.00
2022-07-27T09:58:16.978Z,4768.00
2022-07-27T09:59:16.953Z,4696.00
2022-07-27T10:00:16.874Z,4612.00
2022-07-27T10:01:16.895Z,4456.00
2022-07-27T10:02:16.906Z,4340.00
2022-07-27T10:03:16.742Z,4296.00
2022-07-27T10:04:17.344Z,4316.00
2022-07-27T10:05:16.703Z,4376.00
2022-07-27T10:06:16.630Z,4440.00
2022-07-27T10:07:16.569Z,4512.00
2022-07-27T10:08:16.534Z,4644.00
2022-07-27T10:09:16.484Z,4792.00
2022-07-27T10:10:16.449Z,4900.00
2022-07-27T10:11:16.392Z,4980.00
2022-07-27T10:12:16.351Z,5104.00
2022-07-27T10:13:16.322Z,5824.00
2022-07-27T10:14:16.440Z,7436.00
2022-07-27T10:15:16.217Z,7512.00
2022-07-27T10:16:16.309Z,7612.00
2022-07-27T10:17:16.150Z,7608.00
2022-07-27T10:18:16.093Z,7592.00
2022-07-27T10:19:16.045Z,5408.00
2022-07-27T10:20:16.004Z,5004.00
2022-07-27T10:21:15.957Z,4968.00
2022-07-27T10:22:15.930Z,4920.00
2022-07-27T10:23:15.873Z,4852.00
2022-07-27T10:24:16.109Z,4768.00
2022-07-27T10:25:15.786Z,4656.00
2022-07-27T10:26:15.757Z,4632.00
2022-07-27T10:27:15.697Z,4628.00
2022-07-27T10:28:15.664Z,4744.00
2022-07-27T10:29:15.611Z,5908.00
2022-07-27T10:30:15.567Z,5684.00
2022-07-27T10:31:15.566Z,6360.00
2022-07-27T10:32:15.497Z,5912.00
2022-07-27T10:33:15.436Z,4636.00
2022-07-27T10:34:15.794Z,6136.00
2022-07-27T10:35:15.355Z,5064.00
2022-07-27T10:36:16.933Z,6268.00
2022-07-27T10:37:15.278Z,6172.00
2022-07-27T10:38:15.231Z,5668.00
2022-07-27T10:39:15.179Z,5016.00
2022-07-27T10:40:15.144Z,4256.00
2022-07-27T10:41:15.093Z,4376.00
2022-07-27T10:42:15.099Z,4476.00
2022-07-27T10:43:15.008Z,4684.00
2022-07-27T10:44:25.043Z,6176.00
2022-07-27T10:45:14.943Z,4396.00
2022-07-27T10:46:15.010Z,4152.00
2022-07-27T10:47:14.885Z,4056.00
2022-07-27T10:48:14.807Z,4100.00
2022-07-27T10:49:14.842Z,4608.00
2022-07-27T10:50:14.741Z,4964.00
2022-07-27T10:51:14.719Z,5472.00
2022-07-27T10:52:14.684Z,6296.00
2022-07-27T10:53:14.625Z,5992.00
2022-07-27T10:54:14.545Z,4584.00
2022-07-27T10:55:14.509Z,5988.00
2022-07-27T10:56:14.468Z,5936.00
2022-07-27T10:57:14.451Z,6040.00
2022-07-27T10:58:14.435Z,6068.00
2022-07-27T10:59:14.381Z,6180.00
2022-07-27T11:00:19.448Z,6212.00
2022-07-27T11:01:14.761Z,6200.00
2022-07-27T11:02:14.208Z,6212.00
2022-07-27T11:03:14.161Z,6156.00
2022-07-27T11:04:14.650Z,6060.00
2022-07-27T11:05:42.524Z,6036.00
2022-07-27T11:07:24.373Z,6076.00
2022-07-27T11:08:36.034Z,6136.00
2022-07-27T11:10:13.905Z,6092.00
2022-07-27T11:11:13.903Z,6124.00
2022-07-27T11:12:13.797Z,6092.00
2022-07-27T11:13:13.889Z,6192.00
2022-07-27T11:14:14.059Z,6304.00
2022-07-27T11:15:13.651Z,4068.00
2022-07-27T11:16:23.931Z,4688.00
2022-07-27T11:18:15.052Z,6392.00
2022-07-27T11:19:13.928Z,6400.00
2022-07-27T11:20:13.960Z,4388.00
2022-07-27T11:21:13.407Z,5356.00
2022-07-27T11:22:28.348Z,6196.00
2022-07-27T11:23:49.959Z,6244.00
2022-07-27T11:24:13.604Z,5928.00
2022-07-27T11:25:13.369Z,5928.00
2022-07-27T11:26:13.240Z,5848.00
2022-07-27T11:27:16.234Z,5792.00
2022-07-27T11:28:13.165Z,5716.00
2022-07-27T11:29:13.601Z,5600.00
2022-07-27T11:30:13.066Z,4072.00
2022-07-27T11:31:13.072Z,5576.00
2022-07-27T11:32:12.997Z,3264.00
2022-07-27T11:33:12.933Z,3312.00
2022-07-27T11:34:13.316Z,5676.00
2022-07-27T11:35:17.680Z,4140.00
2022-07-27T11:36:12.788Z,5756.00
2022-07-27T11:37:12.756Z,5744.00
2022-07-27T11:38:12.748Z,5804.00
2022-07-27T11:39:14.839Z,5736.00
2022-07-27T11:40:37.480Z,5608.00
2022-07-27T11:41:28.300Z,5556.00
2022-07-27T11:42:17.703Z,5504.00
2022-07-27T11:43:12.531Z,5500.00
2022-07-27T11:44:12.866Z,5496.00
2022-07-27T11:45:12.479Z,5444.00
2022-07-27T11:46:12.547Z,5412.00
2022-07-27T11:47:12.375Z,5396.00
2022-07-27T11:48:12.302Z,5444.00
2022-07-27T11:49:12.293Z,5452.00
2022-07-27T11:50:12.338Z,5488.00
2022-07-27T11:51:12.186Z,5524.00
2022-07-27T11:52:12.188Z,5580.00
2022-07-27T11:53:12.145Z,5584.00
2022-07-27T11:54:12.083Z,4136.00
2022-07-27T11:55:13.538Z,4564.00
2022-07-27T11:56:11.986Z,5492.00
2022-07-27T11:57:11.958Z,5444.00
2022-07-27T11:58:11.950Z,5500.00
2022-07-27T11:59:12.012Z,4864.00
2022-07-27T12:00:11.813Z,5508.00
2022-07-27T12:01:11.797Z,5536.00
2022-07-27T12:02:11.829Z,5596.00
2022-07-27T12:03:11.694Z,5436.00
2022-07-27T12:04:11.700Z,4196.00
2022-07-27T12:05:11.667Z,3152.00
2022-07-27T12:06:11.593Z,4536.00
2022-07-27T12:07:11.553Z,5480.00
2022-07-27T12:08:11.512Z,5380.00
2022-07-27T12:09:11.762Z,5384.00
2022-07-27T12:10:11.441Z,4364.00
2022-07-27T12:11:11.449Z,2824.00
2022-07-27T12:12:11.367Z,2800.00
2022-07-27T12:13:11.288Z,2652.00
2022-07-27T12:14:11.273Z,4964.00
2022-07-27T12:15:28.446Z,5096.00
2022-07-27T12:16:13.485Z,5048.00
2022-07-27T12:17:11.218Z,5068.00
2022-07-27T12:18:11.112Z,5096.00
2022-07-27T12:19:11.398Z,2756.00
2022-07-27T12:20:11.027Z,5052.00
2022-07-27T12:21:11.060Z,5028.00
2022-07-27T12:22:10.948Z,5020.00
2022-07-27T12:23:10.887Z,4992.00
2022-07-27T12:24:10.859Z,5000.00
2022-07-27T12:25:15.912Z,5028.00
2022-07-27T12:26:10.746Z,5084.00
2022-07-27T12:27:10.724Z,5160.00
2022-07-27T12:28:10.691Z,5172.00
2022-07-27T12:29:10.982Z,5136.00
2022-07-27T12:30:10.642Z,5108.00
2022-07-27T12:31:10.638Z,4872.00
2022-07-27T12:32:10.535Z,5080.00